createdAt,value
2024-01-18T00:00:57.261Z,-6.79
2024-01-18T00:03:24.253Z,-6.84
2024-01-18T00:05:51.239Z,-6.83
2024-01-18T00:08:18.098Z,-6.84
2024-01-18T00:10:44.970Z,-6.89
2024-01-18T00:13:12.269Z,-6.94
2024-01-18T00:15:39.066Z,-6.89
2024-01-18T00:18:06.720Z,-6.88
2024-01-18T00:20:33.624Z,-6.91
2024-01-18T00:23:00.409Z,-6.85
2024-01-18T00:25:27.240Z,-7.04
2024-01-18T00:27:53.986Z,-6.96
2024-01-18T00:30:20.815Z,-6.87
2024-01-18T00:32:47.707Z,-7.00
2024-01-18T00:35:14.508Z,-6.90
2024-01-18T00:37:41.275Z,-6.87
2024-01-18T00:40:08.941Z,-6.82
2024-01-18T00:42:35.777Z,-6.96
2024-01-18T00:45:02.587Z,-6.84
2024-01-18T00:47:29.516Z,-6.86
2024-01-18T00:49:56.399Z,-6.86
2024-01-18T00:52:23.233Z,-6.95
2024-01-18T00:54:50.156Z,-6.86
2024-01-18T00:57:17.004Z,-6.89
2024-01-18T00:59:43.866Z,-6.94
2024-01-18T01:02:11.202Z,-6.85
2024-01-18T01:04:37.978Z,-6.91
2024-01-18T01:07:05.063Z,-6.89
2024-01-18T01:09:32.158Z,-6.81
2024-01-18T01:11:58.984Z,-6.83
2024-01-18T01:14:25.837Z,-6.96
2024-01-18T01:16:52.944Z,-6.91
2024-01-18T01:19:19.675Z,-6.83
2024-01-18T01:21:46.689Z,-6.80
2024-01-18T01:24:13.625Z,-6.80
2024-01-18T01:26:40.327Z,-6.74
2024-01-18T01:29:09.365Z,-6.71
2024-01-18T01:31:36.693Z,-6.72
2024-01-18T01:34:03.523Z,-6.70
2024-01-18T01:36:30.456Z,-6.64
2024-01-18T01:38:57.548Z,-6.60
2024-01-18T01:41:24.419Z,-6.64
2024-01-18T01:43:58.700Z,-6.56
2024-01-18T01:46:26.110Z,-6.62
2024-01-18T01:48:57.783Z,-6.50
2024-01-18T01:51:24.890Z,-6.49
2024-01-18T01:53:53.031Z,-6.48
2024-01-18T01:56:19.862Z,-6.49
2024-01-18T01:58:47.581Z,-6.46
2024-01-18T02:01:14.370Z,-6.58
2024-01-18T02:03:41.158Z,-6.54
2024-01-18T02:06:08.211Z,-6.26
2024-01-18T02:08:35.118Z,-6.30
2024-01-18T02:11:02.448Z,-6.22
2024-01-18T02:13:31.107Z,-6.32
2024-01-18T02:15:57.781Z,-6.24
2024-01-18T02:18:24.615Z,-6.22
2024-01-18T02:20:51.588Z,-6.12
2024-01-18T02:23:18.499Z,-6.17
2024-01-18T02:25:45.287Z,-6.10
2024-01-18T02:28:12.662Z,-6.07
2024-01-18T02:30:39.365Z,-6.08
2024-01-18T02:33:06.136Z,-6.01
2024-01-18T02:35:32.948Z,-6.07
2024-01-18T02:37:59.674Z,-5.96
2024-01-18T02:40:26.463Z,-5.88
2024-01-18T02:42:53.438Z,-5.80
2024-01-18T02:45:20.222Z,-5.74
2024-01-18T02:47:47.057Z,-5.74
2024-01-18T02:50:14.067Z,-5.61
2024-01-18T02:52:40.962Z,-5.59
2024-01-18T02:55:08.856Z,-5.40
2024-01-18T02:57:35.763Z,-5.50
2024-01-18T03:00:02.814Z,-5.35
2024-01-18T03:02:29.567Z,-5.10
2024-01-18T03:04:56.571Z,-5.04
2024-01-18T03:07:23.269Z,-4.96
2024-01-18T03:09:50.007Z,-4.74
2024-01-18T03:12:16.843Z,-4.84
2024-01-18T03:14:43.662Z,-4.58
2024-01-18T03:17:10.361Z,-4.61
2024-01-18T03:19:37.296Z,-4.73
2024-01-18T03:22:04.371Z,-4.53
2024-01-18T03:24:31.118Z,-4.55
2024-01-18T03:26:58.039Z,-4.32
2024-01-18T03:29:24.789Z,-4.09
2024-01-18T03:31:51.527Z,-3.94
2024-01-18T03:34:18.580Z,-4.05
2024-01-18T03:36:45.508Z,-3.86
2024-01-18T03:39:12.296Z,-3.61
2024-01-18T03:41:39.189Z,-3.63
2024-01-18T03:44:05.918Z,-3.51
2024-01-18T03:46:32.624Z,-3.39
2024-01-18T03:49:00.149Z,-3.41
2024-01-18T03:51:27.040Z,-3.32
2024-01-18T03:53:53.727Z,-3.18
2024-01-18T03:56:20.694Z,-3.21
2024-01-18T03:58:47.533Z,-3.04
2024-01-18T04:01:14.686Z,-2.90
2024-01-18T04:03:44.049Z,-3.07
2024-01-18T04:06:13.253Z,-3.28
2024-01-18T04:08:40.171Z,-2.80
2024-01-18T04:11:07.567Z,-2.66
2024-01-18T04:13:34.357Z,-2.58
2024-01-18T04:16:01.093Z,-2.56
2024-01-18T04:18:28.076Z,-2.79
2024-01-18T04:20:55.060Z,-2.84
2024-01-18T04:23:22.661Z,-2.64
2024-01-18T04:25:53.235Z,-2.57
2024-01-18T04:28:20.602Z,-2.61
2024-01-18T04:30:47.757Z,-2.53
2024-01-18T04:33:14.958Z,-2.57
2024-01-18T04:35:41.720Z,-2.51
2024-01-18T04:38:08.412Z,-2.52
2024-01-18T04:40:35.519Z,-2.52
2024-01-18T04:43:02.215Z,-2.56
2024-01-18T04:45:28.995Z,-2.43
2024-01-18T04:47:57.784Z,-2.33
2024-01-18T04:50:27.428Z,-2.25
2024-01-18T04:52:55.169Z,-2.27
2024-01-18T04:55:22.851Z,-2.09
2024-01-18T04:57:50.697Z,-2.26
2024-01-18T05:00:18.877Z,-2.17
2024-01-18T05:02:45.761Z,-2.00
2024-01-18T05:05:13.258Z,-2.02
2024-01-18T05:07:42.749Z,-2.07
2024-01-18T05:10:10.682Z,-1.99
2024-01-18T05:12:38.459Z,-1.84
2024-01-18T05:15:06.030Z,-2.08
2024-01-18T05:17:38.947Z,-1.97
2024-01-18T05:20:07.277Z,-1.81
2024-01-18T05:22:34.677Z,-1.74
2024-01-18T05:25:01.714Z,-1.64
2024-01-18T05:27:31.282Z,-1.55
2024-01-18T05:29:58.767Z,-1.42
2024-01-18T05:32:25.892Z,-1.31
2024-01-18T05:34:53.590Z,-1.25
2024-01-18T05:37:23.887Z,-1.25
2024-01-18T05:39:54.679Z,-1.11
2024-01-18T05:42:21.655Z,-0.99
2024-01-18T05:44:49.203Z,-0.92
2024-01-18T05:47:16.138Z,-0.70
2024-01-18T05:49:43.014Z,-0.69
2024-01-18T05:52:09.958Z,-0.60
2024-01-18T05:54:36.991Z,-0.47
2024-01-18T05:57:05.772Z,-0.31
2024-01-18T05:59:32.903Z,-0.38
2024-01-18T06:02:00.643Z,-0.10
2024-01-18T06:04:27.655Z,-0.04
2024-01-18T06:06:54.899Z,0.11
2024-01-18T06:09:22.056Z,0.23
2024-01-18T06:11:49.898Z,0.15
2024-01-18T06:14:16.828Z,0.47
2024-01-18T06:16:43.944Z,0.63
2024-01-18T06:19:13.040Z,0.83
2024-01-18T06:21:40.715Z,0.75
2024-01-18T06:24:08.276Z,1.14
2024-01-18T06:26:34.972Z,1.28
2024-01-18T06:29:02.141Z,1.39
2024-01-18T06:31:29.759Z,1.53
2024-01-18T06:33:57.511Z,1.50
2024-01-18T06:36:24.449Z,1.70
2024-01-18T06:38:51.342Z,1.67
2024-01-18T06:41:18.524Z,1.79
2024-01-18T06:43:45.453Z,1.78
2024-01-18T06:46:19.157Z,1.89
2024-01-18T06:48:54.559Z,1.85
2024-01-18T06:51:23.177Z,1.79
2024-01-18T06:53:50.690Z,1.93
2024-01-18T06:56:17.996Z,1.96
2024-01-18T06:58:45.547Z,1.92
2024-01-18T07:01:14.263Z,1.98
2024-01-18T07:03:43.680Z,2.16
2024-01-18T07:06:11.142Z,2.13
2024-01-18T07:08:40.975Z,2.01
2024-01-18T07:11:07.803Z,1.95
2024-01-18T07:13:34.795Z,2.08
2024-01-18T07:16:01.916Z,2.06
2024-01-18T07:18:28.932Z,2.27
2024-01-18T07:20:55.799Z,2.19
2024-01-18T07:23:22.670Z,2.17
2024-01-18T07:25:52.659Z,2.10
2024-01-18T07:28:22.740Z,2.05
2024-01-18T07:30:50.218Z,2.11
2024-01-18T07:33:17.996Z,1.67
2024-01-18T07:35:44.945Z,2.39
2024-01-18T07:38:11.659Z,2.35
2024-01-18T07:40:38.367Z,2.29
2024-01-18T07:43:05.364Z,2.36
2024-01-18T07:45:32.246Z,2.52
2024-01-18T07:47:59.107Z,2.53
2024-01-18T07:50:34.735Z,2.50
2024-01-18T07:53:04.046Z,2.39
2024-01-18T07:55:31.381Z,2.50
2024-01-18T07:57:58.089Z,2.51
2024-01-18T08:00:25.692Z,2.71
2024-01-18T08:02:52.658Z,2.82
2024-01-18T08:05:19.337Z,2.54
2024-01-18T08:07:46.107Z,2.73
2024-01-18T08:10:13.169Z,2.81
2024-01-18T08:12:39.960Z,2.61
2024-01-18T08:15:07.113Z,2.77
2024-01-18T08:17:34.223Z,2.70
2024-01-18T08:20:01.287Z,2.70
2024-01-18T08:22:29.057Z,2.85
2024-01-18T08:24:58.213Z,2.78
2024-01-18T08:27:25.447Z,2.70
2024-01-18T08:29:52.492Z,2.80
2024-01-18T08:32:19.380Z,2.94
2024-01-18T08:34:46.272Z,2.76
2024-01-18T08:37:14.032Z,3.08
2024-01-18T08:39:41.225Z,3.07
2024-01-18T08:42:08.568Z,2.78
2024-01-18T08:44:35.663Z,2.59
2024-01-18T08:47:02.464Z,2.85
2024-01-18T08:49:30.140Z,2.94
2024-01-18T08:51:57.195Z,2.90
2024-01-18T08:54:24.181Z,3.07
2024-01-18T08:56:50.976Z,3.21
2024-01-18T08:59:17.757Z,2.97
2024-01-18T09:01:44.813Z,2.87
2024-01-18T09:04:11.764Z,2.75
2024-01-18T09:06:39.784Z,3.02
2024-01-18T09:09:11.340Z,3.18
2024-01-18T09:11:39.844Z,3.01
2024-01-18T09:14:07.099Z,3.01
2024-01-18T09:16:33.909Z,3.07
2024-01-18T09:19:10.892Z,3.14
2024-01-18T09:21:42.922Z,2.95
2024-01-18T09:24:09.903Z,3.12
2024-01-18T09:26:37.041Z,3.05
2024-01-18T09:29:03.993Z,3.08
2024-01-18T09:31:38.402Z,3.20
2024-01-18T09:34:09.873Z,3.06
2024-01-18T09:36:37.409Z,3.07
2024-01-18T09:39:09.177Z,2.82
2024-01-18T09:41:37.017Z,3.02
2024-01-18T09:44:05.355Z,3.36
2024-01-18T09:46:33.548Z,3.07
2024-01-18T09:49:03.249Z,3.44
2024-01-18T09:51:32.795Z,3.51
2024-01-18T09:54:02.262Z,3.22
2024-01-18T09:56:29.965Z,3.27
2024-01-18T09:58:58.500Z,3.48
2024-01-18T10:01:27.046Z,3.58
2024-01-18T10:03:55.662Z,3.50
2024-01-18T10:06:23.282Z,3.66
2024-01-18T10:08:52.762Z,3.56
2024-01-18T10:11:20.436Z,3.60
2024-01-18T10:13:58.792Z,3.55
2024-01-18T10:16:28.800Z,3.57
2024-01-18T10:18:59.462Z,3.53
2024-01-18T10:21:26.235Z,3.36
2024-01-18T10:23:54.440Z,3.43
2024-01-18T10:26:29.106Z,3.46
2024-01-18T10:28:57.274Z,3.49
2024-01-18T10:31:25.181Z,3.53
2024-01-18T10:33:52.967Z,3.62
2024-01-18T10:36:23.137Z,3.43
2024-01-18T10:38:50.820Z,3.38
2024-01-18T10:41:20.847Z,3.30
2024-01-18T10:43:49.394Z,3.65
2024-01-18T10:46:16.508Z,3.96
2024-01-18T10:48:48.440Z,3.54
2024-01-18T10:51:15.665Z,3.56
2024-01-18T10:53:43.234Z,3.58
2024-01-18T10:56:10.669Z,3.59
2024-01-18T10:58:37.369Z,3.38
2024-01-18T11:01:05.444Z,3.42
2024-01-18T11:03:33.063Z,3.43
2024-01-18T11:06:00.623Z,3.14
2024-01-18T11:08:28.025Z,3.34
2024-01-18T11:10:55.156Z,3.34
2024-01-18T11:13:21.939Z,3.30
2024-01-18T11:15:49.116Z,3.41
2024-01-18T11:18:16.288Z,3.29
2024-01-18T11:21:10.469Z,3.59
2024-01-18T11:23:39.459Z,3.64
2024-01-18T11:26:08.109Z,3.61
2024-01-18T11:28:35.722Z,3.44
2024-01-18T11:31:03.211Z,3.43
2024-01-18T11:33:30.145Z,3.28
2024-01-18T11:35:59.731Z,3.53
2024-01-18T11:38:33.840Z,3.71
2024-01-18T11:41:11.398Z,3.35
2024-01-18T11:43:57.792Z,3.39
2024-01-18T11:46:40.279Z,3.29
2024-01-18T11:49:07.961Z,3.31
2024-01-18T11:51:35.652Z,3.37
2024-01-18T11:54:03.454Z,3.49
2024-01-18T11:56:30.763Z,3.30
2024-01-18T11:59:03.371Z,3.43
2024-01-18T12:01:33.333Z,3.41
2024-01-18T12:04:00.701Z,3.63
2024-01-18T12:06:30.305Z,3.54
2024-01-18T12:08:58.266Z,3.57
2024-01-18T12:11:25.236Z,3.58
2024-01-18T12:13:52.144Z,3.46
2024-01-18T12:16:22.732Z,3.79
2024-01-18T12:18:51.774Z,3.62
2024-01-18T12:21:20.437Z,3.76
2024-01-18T12:23:48.669Z,3.85
2024-01-18T12:26:16.178Z,3.85
2024-01-18T12:28:42.947Z,3.87
2024-01-18T12:31:10.766Z,3.77
2024-01-18T12:33:38.539Z,3.91
2024-01-18T12:36:08.919Z,3.59
2024-01-18T12:38:37.238Z,3.72
2024-01-18T12:41:04.447Z,3.61
2024-01-18T12:43:31.384Z,3.68
2024-01-18T12:45:58.747Z,3.41
2024-01-18T12:48:28.633Z,3.78
2024-01-18T12:50:56.177Z,3.64
2024-01-18T12:53:25.036Z,3.73
2024-01-18T12:55:52.267Z,3.68
2024-01-18T12:58:18.986Z,3.74
2024-01-18T13:00:51.650Z,4.03
2024-01-18T13:03:18.814Z,3.64
2024-01-18T13:05:46.345Z,3.71
2024-01-18T13:08:14.513Z,3.77
2024-01-18T13:10:41.389Z,3.55
2024-01-18T13:13:11.334Z,3.60
2024-01-18T13:15:41.804Z,3.36
2024-01-18T13:18:10.599Z,3.42
2024-01-18T13:20:40.724Z,3.41
2024-01-18T13:23:10.924Z,3.34
2024-01-18T13:25:38.056Z,3.16
2024-01-18T13:28:05.901Z,3.51
2024-01-18T13:30:33.574Z,3.37
2024-01-18T13:33:05.915Z,3.21
2024-01-18T13:35:35.139Z,3.20
2024-01-18T13:38:01.933Z,3.34
2024-01-18T13:40:28.744Z,3.24
2024-01-18T13:42:55.719Z,3.01
2024-01-18T13:45:25.193Z,3.35
2024-01-18T13:47:52.683Z,3.19
2024-01-18T13:50:23.341Z,3.41
2024-01-18T13:52:50.732Z,3.33
2024-01-18T13:55:18.066Z,3.17
2024-01-18T13:57:45.695Z,3.41
2024-01-18T14:00:13.848Z,3.34
2024-01-18T14:02:41.152Z,3.05
2024-01-18T14:05:08.544Z,3.16
2024-01-18T14:07:35.585Z,3.00
2024-01-18T14:10:02.596Z,3.13
2024-01-18T14:12:29.552Z,3.09
2024-01-18T14:14:56.647Z,3.35
2024-01-18T14:17:23.331Z,3.20
2024-01-18T14:19:50.673Z,3.22
2024-01-18T14:22:17.935Z,3.19
2024-01-18T14:24:45.802Z,3.15
2024-01-18T14:27:12.969Z,3.32
2024-01-18T14:29:40.345Z,3.23
2024-01-18T14:32:07.383Z,3.40
2024-01-18T14:34:34.773Z,3.40
2024-01-18T14:37:01.918Z,3.18
2024-01-18T14:39:28.825Z,3.20
2024-01-18T14:41:55.744Z,3.16
2024-01-18T14:44:22.469Z,3.20
2024-01-18T14:46:49.383Z,3.34
2024-01-18T14:49:19.551Z,2.99
2024-01-18T14:51:46.532Z,3.29
2024-01-18T14:54:13.300Z,3.31
2024-01-18T14:56:48.398Z,3.50
2024-01-18T14:59:15.953Z,3.25
2024-01-18T15:01:43.539Z,3.31
2024-01-18T15:04:11.506Z,3.24
2024-01-18T15:06:38.706Z,3.17
2024-01-18T15:09:05.644Z,3.15
2024-01-18T15:11:32.528Z,3.10
2024-01-18T15:13:59.380Z,3.12
2024-01-18T15:16:27.175Z,3.28
2024-01-18T15:19:03.153Z,3.37
2024-01-18T15:21:35.120Z,3.26
2024-01-18T15:24:02.097Z,3.16
2024-01-18T15:26:28.843Z,3.16
2024-01-18T15:28:55.783Z,3.20
2024-01-18T15:31:29.881Z,3.16
2024-01-18T15:33:57.425Z,3.47
2024-01-18T15:36:26.273Z,3.15
2024-01-18T15:38:53.402Z,3.18
2024-01-18T15:41:20.324Z,3.28
2024-01-18T15:43:47.121Z,3.38
2024-01-18T15:46:16.823Z,3.43
2024-01-18T15:48:43.889Z,3.35
2024-01-18T15:51:13.631Z,3.25
2024-01-18T15:53:40.811Z,3.21
2024-01-18T15:56:10.185Z,3.16
2024-01-18T15:58:36.895Z,3.16
2024-01-18T16:01:04.039Z,3.29
2024-01-18T16:03:30.932Z,3.35
2024-01-18T16:05:57.729Z,3.42
2024-01-18T16:08:24.607Z,3.35
2024-01-18T16:10:51.433Z,3.35
2024-01-18T16:13:18.263Z,3.36
2024-01-18T16:15:45.276Z,3.20
2024-01-18T16:18:12.211Z,3.36
2024-01-18T16:20:38.953Z,3.06
2024-01-18T16:23:05.952Z,3.06
2024-01-18T16:25:33.508Z,3.15
2024-01-18T16:28:00.290Z,3.25
2024-01-18T16:30:30.735Z,3.25
2024-01-18T16:32:58.703Z,3.30
2024-01-18T16:35:25.688Z,3.11
2024-01-18T16:37:52.995Z,2.93
2024-01-18T16:40:19.946Z,3.00
2024-01-18T16:42:46.777Z,2.97
2024-01-18T16:45:16.844Z,3.14
2024-01-18T16:47:44.760Z,2.88
2024-01-18T16:50:11.612Z,3.20
2024-01-18T16:52:38.629Z,2.65
2024-01-18T16:55:06.471Z,3.07
2024-01-18T16:57:35.334Z,3.14
2024-01-18T17:00:02.274Z,3.14
2024-01-18T17:02:29.423Z,2.99
2024-01-18T17:04:56.545Z,3.05
2024-01-18T17:07:24.185Z,2.97
2024-01-18T17:09:51.010Z,3.07
2024-01-18T17:12:17.754Z,3.09
2024-01-18T17:14:44.748Z,3.16
2024-01-18T17:17:11.565Z,3.01
2024-01-18T17:19:38.381Z,2.88
2024-01-18T17:22:05.515Z,3.10
2024-01-18T17:24:34.144Z,3.03
2024-01-18T17:27:01.085Z,3.00
2024-01-18T17:29:28.214Z,3.01
2024-01-18T17:31:55.201Z,2.98
2024-01-18T17:34:23.448Z,3.09
2024-01-18T17:36:50.857Z,3.22
2024-01-18T17:39:20.413Z,3.08
2024-01-18T17:41:47.384Z,3.25
2024-01-18T17:44:17.860Z,2.82
2024-01-18T17:46:50.887Z,2.58
2024-01-18T17:49:23.835Z,2.76
2024-01-18T17:51:50.936Z,2.86
2024-01-18T17:54:18.636Z,3.16
2024-01-18T17:56:49.375Z,3.10
2024-01-18T17:59:17.183Z,3.16
2024-01-18T18:01:43.914Z,3.01
2024-01-18T18:04:10.909Z,2.91
2024-01-18T18:06:39.590Z,2.95
2024-01-18T18:09:07.712Z,2.99
2024-01-18T18:11:34.727Z,3.03
2024-01-18T18:14:01.903Z,2.98
2024-01-18T18:16:28.663Z,3.06
2024-01-18T18:18:55.596Z,3.10
2024-01-18T18:21:24.639Z,2.78
2024-01-18T18:23:51.921Z,2.87
2024-01-18T18:26:18.926Z,2.83
2024-01-18T18:28:45.901Z,2.90
2024-01-18T18:31:12.966Z,2.83
2024-01-18T18:33:40.029Z,2.98
2024-01-18T18:36:07.063Z,3.02
2024-01-18T18:38:34.461Z,3.21
2024-01-18T18:41:02.197Z,3.00
2024-01-18T18:43:30.510Z,3.01
2024-01-18T18:45:58.232Z,3.18
2024-01-18T18:48:25.847Z,3.01
2024-01-18T18:50:53.982Z,2.99
2024-01-18T18:53:20.985Z,3.04
2024-01-18T18:55:48.003Z,3.19
2024-01-18T18:58:15.401Z,3.12
2024-01-18T19:00:42.225Z,3.01
2024-01-18T19:03:09.149Z,2.86
2024-01-18T19:05:36.112Z,2.89
2024-01-18T19:08:04.397Z,2.91
2024-01-18T19:10:31.322Z,2.89
2024-01-18T19:12:58.318Z,2.99
2024-01-18T19:15:25.123Z,2.85
2024-01-18T19:17:52.180Z,2.97
2024-01-18T19:20:20.450Z,2.88
2024-01-18T19:22:47.213Z,2.85
2024-01-18T19:25:14.271Z,2.86
2024-01-18T19:27:41.076Z,2.94
2024-01-18T19:30:08.383Z,2.95
2024-01-18T19:32:35.885Z,2.97
2024-01-18T19:35:03.112Z,2.98
2024-01-18T19:37:29.792Z,3.02
2024-01-18T19:39:56.741Z,3.17
2024-01-18T19:42:23.585Z,3.21
2024-01-18T19:44:50.374Z,3.10
2024-01-18T19:47:17.453Z,2.95
2024-01-18T19:49:45.110Z,2.93
2024-01-18T19:52:12.149Z,2.70
2024-01-18T19:54:39.052Z,2.85
2024-01-18T19:57:06.074Z,2.96
2024-01-18T19:59:35.453Z,2.83
2024-01-18T20:02:06.832Z,2.85
2024-01-18T20:04:35.711Z,2.72
2024-01-18T20:07:03.139Z,2.59
2024-01-18T20:09:30.198Z,3.07
2024-01-18T20:11:57.308Z,3.05
2024-01-18T20:14:25.317Z,3.16
2024-01-18T20:16:52.360Z,2.97
2024-01-18T20:19:19.922Z,2.80
2024-01-18T20:21:48.690Z,2.92
2024-01-18T20:24:15.733Z,3.00
2024-01-18T20:26:43.014Z,2.95
2024-01-18T20:29:10.676Z,2.96
2024-01-18T20:31:44.321Z,2.95
2024-01-18T20:34:11.763Z,2.81
2024-01-18T20:36:39.038Z,2.86
2024-01-18T20:39:08.321Z,2.84
2024-01-18T20:41:36.277Z,2.77
2024-01-18T20:44:03.069Z,2.84
2024-01-18T20:46:32.193Z,2.65
2024-01-18T20:48:59.299Z,2.55
2024-01-18T20:51:26.238Z,2.78
2024-01-18T20:53:53.356Z,2.71
2024-01-18T20:56:20.444Z,2.72
2024-01-18T20:58:50.464Z,3.02
2024-01-18T21:01:18.143Z,2.75
2024-01-18T21:03:45.438Z,2.69
2024-01-18T21:06:12.826Z,2.78
2024-01-18T21:08:39.940Z,2.71
2024-01-18T21:11:06.875Z,2.66
2024-01-18T21:13:33.926Z,2.65
2024-01-18T21:16:01.241Z,2.60
2024-01-18T21:18:28.202Z,2.80
2024-01-18T21:20:55.108Z,2.80
2024-01-18T21:23:23.539Z,2.79
2024-01-18T21:25:50.350Z,2.89
2024-01-18T21:28:17.439Z,2.84
2024-01-18T21:30:44.299Z,2.77
2024-01-18T21:33:12.824Z,2.66
2024-01-18T21:35:39.831Z,2.79
2024-01-18T21:38:06.766Z,2.72
2024-01-18T21:40:33.483Z,2.88
2024-01-18T21:43:00.376Z,2.85
2024-01-18T21:45:27.523Z,2.90
2024-01-18T21:47:57.847Z,2.92
2024-01-18T21:50:25.851Z,2.69
2024-01-18T21:52:53.818Z,2.93
2024-01-18T21:55:20.527Z,2.84
2024-01-18T21:57:47.271Z,2.95
2024-01-18T22:00:14.301Z,3.05
2024-01-18T22:02:42.191Z,2.91
2024-01-18T22:05:09.516Z,3.00
2024-01-18T22:07:36.749Z,2.92
2024-01-18T22:10:03.725Z,2.92
2024-01-18T22:12:30.435Z,2.97
2024-01-18T22:14:57.211Z,2.94
2024-01-18T22:17:24.154Z,2.85
2024-01-18T22:19:58.516Z,2.80
2024-01-18T22:22:33.185Z,2.70
2024-01-18T22:25:00.016Z,2.89
2024-01-18T22:27:28.106Z,2.93
2024-01-18T22:29:55.497Z,3.03
2024-01-18T22:32:23.354Z,2.95
2024-01-18T22:34:52.173Z,2.92
2024-01-18T22:37:19.886Z,2.92
2024-01-18T22:39:46.615Z,2.82
2024-01-18T22:42:13.380Z,2.92
2024-01-18T22:44:40.516Z,2.93
2024-01-18T22:47:07.450Z,2.91
2024-01-18T22:49:35.074Z,2.84
2024-01-18T22:52:02.239Z,2.80
2024-01-18T22:54:29.554Z,2.89
2024-01-18T22:56:57.183Z,2.96
2024-01-18T22:59:24.246Z,2.97
2024-01-18T23:01:51.009Z,3.03
2024-01-18T23:04:17.933Z,2.80
2024-01-18T23:06:44.902Z,2.85
2024-01-18T23:09:11.841Z,2.86
2024-01-18T23:11:38.586Z,2.85
2024-01-18T23:14:05.842Z,2.84
2024-01-18T23:16:32.609Z,2.93
2024-01-18T23:18:59.370Z,2.79
2024-01-18T23:21:26.544Z,2.75
2024-01-18T23:23:53.428Z,3.01
2024-01-18T23:26:20.233Z,2.89
2024-01-18T23:28:47.075Z,2.84
2024-01-18T23:31:13.735Z,2.77
2024-01-18T23:33:40.739Z,2.79
2024-01-18T23:36:08.151Z,2.49
2024-01-18T23:38:34.890Z,2.51
2024-01-18T23:41:01.947Z,2.68
2024-01-18T23:43:28.886Z,2.68
2024-01-18T23:45:55.644Z,2.72
2024-01-18T23:48:22.854Z,2.65
2024-01-18T23:50:50.011Z,2.73
2024-01-18T23:53:16.805Z,2.84
2024-01-18T23:55:43.532Z,2.56
2024-01-18T23:58:10.390Z,2.43
